sensor_id;sensor_type;location;lat;lon;timestamp;pressure;altitude;pressure_sealevel;temperature;humidity
21236;BME280;10775;42.678;26.324;2023-04-24T00:01:11;98613.53;;;10.76;100.00
21236;BME280;10775;42.678;26.324;2023-04-24T00:03:38;98599.53;;;10.77;100.00
21236;BME280;10775;42.678;26.324;2023-04-24T00:06:04;98605.88;;;10.65;100.00
21236;BME280;10775;42.678;26.324;2023-04-24T00:08:32;98603.47;;;10.56;100.00
21236;BME280;10775;42.678;26.324;2023-04-24T00:10:57;98597.41;;;10.56;100.00
21236;BME280;10775;42.678;26.324;2023-04-24T00:13:23;98600.88;;;10.56;100.00
21236;BME280;10775;42.678;26.324;2023-04-24T00:15:49;98594.81;;;10.53;100.00
21236;BME280;10775;42.678;26.324;2023-04-24T00:18:14;98601.88;;;10.51;100.00
21236;BME280;10775;42.678;26.324;2023-04-24T00:20:40;98591.34;;;10.54;100.00
21236;BME280;10775;42.678;26.324;2023-04-24T00:23:05;98591.19;;;10.61;100.00
21236;BME280;10775;42.678;26.324;2023-04-24T00:25:31;98594.78;;;10.56;100.00
21236;BME280;10775;42.678;26.324;2023-04-24T00:27:56;98588.78;;;10.51;100.00
21236;BME280;10775;42.678;26.324;2023-04-24T00:30:22;98586.28;;;10.44;100.00
21236;BME280;10775;42.678;26.324;2023-04-24T00:32:47;98591.34;;;10.54;100.00
21236;BME280;10775;42.678;26.324;2023-04-24T00:35:13;98595.75;;;10.52;100.00
21236;BME280;10775;42.678;26.324;2023-04-24T00:37:39;98593.09;;;10.53;100.00
21236;BME280;10775;42.678;26.324;2023-04-24T00:40:05;98590.56;;;10.49;100.00
21236;BME280;10775;42.678;26.324;2023-04-24T00:42:31;98595.28;;;10.31;100.00
21236;BME280;10775;42.678;26.324;2023-04-24T00:44:57;98583.97;;;10.31;100.00
21236;BME280;10775;42.678;26.324;2023-04-24T00:47:23;98571.78;;;10.31;100.00
21236;BME280;10775;42.678;26.324;2023-04-24T00:49:49;98569.22;;;10.28;100.00
21236;BME280;10775;42.678;26.324;2023-04-24T00:52:14;98573.53;;;10.31;100.00
21236;BME280;10775;42.678;26.324;2023-04-24T00:54:44;98574.38;;;10.31;100.00
21236;BME280;10775;42.678;26.324;2023-04-24T00:57:10;98570.94;;;10.29;100.00
21236;BME280;10775;42.678;26.324;2023-04-24T00:59:36;98582.50;;;10.16;100.00
21236;BME280;10775;42.678;26.324;2023-04-24T01:02:02;98573.69;;;10.20;100.00
21236;BME280;10775;42.678;26.324;2023-04-24T01:04:28;98569.22;;;10.27;100.00
21236;BME280;10775;42.678;26.324;2023-04-24T01:06:54;98567.47;;;10.29;100.00
21236;BME280;10775;42.678;26.324;2023-04-24T01:09:23;98559.47;;;10.35;100.00
21236;BME280;10775;42.678;26.324;2023-04-24T01:11:49;98557.63;;;10.41;100.00
21236;BME280;10775;42.678;26.324;2023-04-24T01:14:15;98558.47;;;10.42;100.00
21236;BME280;10775;42.678;26.324;2023-04-24T01:16:40;98553.16;;;10.45;100.00
21236;BME280;10775;42.678;26.324;2023-04-24T01:19:07;98546.31;;;10.41;100.00
21236;BME280;10775;42.678;26.324;2023-04-24T01:21:36;98556.00;;;10.36;100.00
21236;BME280;10775;42.678;26.324;2023-04-24T01:24:02;98550.16;;;10.20;100.00
21236;BME280;10775;42.678;26.324;2023-04-24T01:26:28;98552.91;;;10.15;100.00
21236;BME280;10775;42.678;26.324;2023-04-24T01:28:53;98558.38;;;10.03;100.00
21236;BME280;10775;42.678;26.324;2023-04-24T01:31:19;98547.00;;;10.04;100.00
21236;BME280;10775;42.678;26.324;2023-04-24T01:33:45;98541.78;;;10.06;100.00
21236;BME280;10775;42.678;26.324;2023-04-24T01:36:11;98543.31;;;10.14;100.00
21236;BME280;10775;42.678;26.324;2023-04-24T01:38:37;98535.38;;;10.20;100.00
21236;BME280;10775;42.678;26.324;2023-04-24T01:41:03;98535.31;;;10.23;100.00
21236;BME280;10775;42.678;26.324;2023-04-24T01:43:29;98531.88;;;10.20;100.00
21236;BME280;10775;42.678;26.324;2023-04-24T01:45:54;98534.63;;;10.15;100.00
21236;BME280;10775;42.678;26.324;2023-04-24T01:48:20;98532.09;;;10.11;100.00
21236;BME280;10775;42.678;26.324;2023-04-24T01:50:45;98535.50;;;10.14;100.00
21236;BME280;10775;42.678;26.324;2023-04-24T01:53:11;98535.53;;;10.13;100.00
21236;BME280;10775;42.678;26.324;2023-04-24T01:55:36;98524.13;;;10.17;100.00
21236;BME280;10775;42.678;26.324;2023-04-24T01:58:02;98527.53;;;10.20;100.00
21236;BME280;10775;42.678;26.324;2023-04-24T02:00:27;98529.31;;;10.18;100.00
21236;BME280;10775;42.678;26.324;2023-04-24T02:02:53;98530.41;;;10.07;100.00
21236;BME280;10775;42.678;26.324;2023-04-24T02:05:18;98525.13;;;10.10;100.00
21236;BME280;10775;42.678;26.324;2023-04-24T02:07:44;98523.34;;;10.12;100.00
21236;BME280;10775;42.678;26.324;2023-04-24T02:10:10;98527.72;;;10.11;100.00
21236;BME280;10775;42.678;26.324;2023-04-24T02:12:36;98527.75;;;10.10;100.00
21236;BME280;10775;42.678;26.324;2023-04-24T02:15:01;98533.78;;;10.13;100.00
21236;BME280;10775;42.678;26.324;2023-04-24T02:17:27;98522.56;;;10.08;100.00
21236;BME280;10775;42.678;26.324;2023-04-24T02:19:52;98531.16;;;10.13;100.00
21236;BME280;10775;42.678;26.324;2023-04-24T02:22:18;98526.97;;;10.05;100.00
21236;BME280;10775;42.678;26.324;2023-04-24T02:24:43;98529.75;;;9.97;100.00
21236;BME280;10775;42.678;26.324;2023-04-24T02:27:09;98515.91;;;9.92;100.00
21236;BME280;10775;42.678;26.324;2023-04-24T02:29:34;98521.19;;;9.89;100.00
21236;BME280;10775;42.678;26.324;2023-04-24T02:32:00;98530.78;;;9.90;100.00
21236;BME280;10775;42.678;26.324;2023-04-24T02:34:25;98526.34;;;9.92;100.00
21236;BME280;10775;42.678;26.324;2023-04-24T02:36:51;98533.31;;;9.93;100.00
21236;BME280;10775;42.678;26.324;2023-04-24T02:39:18;98531.66;;;9.89;100.00
21236;BME280;10775;42.678;26.324;2023-04-24T02:41:44;98521.69;;;9.64;100.00
21236;BME280;10775;42.678;26.324;2023-04-24T02:44:09;98521.50;;;9.73;100.00
21236;BME280;10775;42.678;26.324;2023-04-24T02:46:35;98522.47;;;9.69;100.00
21236;BME280;10775;42.678;26.324;2023-04-24T02:49:00;98525.00;;;9.72;100.00
21236;BME280;10775;42.678;26.324;2023-04-24T02:51:26;98524.94;;;9.77;100.00
21236;BME280;10775;42.678;26.324;2023-04-24T02:53:52;98523.25;;;9.74;100.00
21236;BME280;10775;42.678;26.324;2023-04-24T02:56:17;98529.38;;;9.72;100.00
21236;BME280;10775;42.678;26.324;2023-04-24T02:58:43;98527.63;;;9.71;100.00
21236;BME280;10775;42.678;26.324;2023-04-24T03:01:08;98526.00;;;9.65;100.00
21236;BME280;10775;42.678;26.324;2023-04-24T03:03:35;98531.38;;;9.57;100.00
21236;BME280;10775;42.678;26.324;2023-04-24T03:06:01;98526.13;;;9.59;100.00
21236;BME280;10775;42.678;26.324;2023-04-24T03:08:27;98526.94;;;9.63;100.00
21236;BME280;10775;42.678;26.324;2023-04-24T03:10:52;98529.53;;;9.63;100.00
21236;BME280;10775;42.678;26.324;2023-04-24T03:13:18;98527.78;;;9.63;100.00
21236;BME280;10775;42.678;26.324;2023-04-24T03:15:43;98528.75;;;9.59;100.00
21236;BME280;10775;42.678;26.324;2023-04-24T03:18:09;98520.00;;;9.60;100.00
21236;BME280;10775;42.678;26.324;2023-04-24T03:20:35;98522.63;;;9.58;100.00
21236;BME280;10775;42.678;26.324;2023-04-24T03:23:02;98525.66;;;9.37;100.00
21236;BME280;10775;42.678;26.324;2023-04-24T03:25:28;98516.72;;;9.50;100.00
21236;BME280;10775;42.678;26.324;2023-04-24T03:27:53;98519.09;;;9.63;100.00
21236;BME280;10775;42.678;26.324;2023-04-24T03:30:20;98524.19;;;9.69;100.00
21236;BME280;10775;42.678;26.324;2023-04-24T03:32:45;98524.34;;;9.61;100.00
21236;BME280;10775;42.678;26.324;2023-04-24T03:35:11;98533.16;;;9.55;100.00
21236;BME280;10775;42.678;26.324;2023-04-24T03:37:36;98538.44;;;9.52;100.00
21236;BME280;10775;42.678;26.324;2023-04-24T03:40:02;98532.34;;;9.52;100.00
21236;BME280;10775;42.678;26.324;2023-04-24T03:42:28;98527.00;;;9.58;100.00
21236;BME280;10775;42.678;26.324;2023-04-24T03:44:53;98527.13;;;9.52;100.00
21236;BME280;10775;42.678;26.324;2023-04-24T03:47:19;98529.69;;;9.53;100.00
21236;BME280;10775;42.678;26.324;2023-04-24T03:49:44;98527.19;;;9.49;100.00
21236;BME280;10775;42.678;26.324;2023-04-24T03:52:10;98532.31;;;9.53;100.00
21236;BME280;10775;42.678;26.324;2023-04-24T03:54:35;98531.31;;;9.61;100.00
21236;BME280;10775;42.678;26.324;2023-04-24T03:57:01;98531.22;;;9.67;100.00
21236;BME280;10775;42.678;26.324;2023-04-24T03:59:27;98536.38;;;9.70;100.00
21236;BME280;10775;42.678;26.324;2023-04-24T04:01:52;98544.16;;;9.71;100.00
21236;BME280;10775;42.678;26.324;2023-04-24T04:04:17;98536.25;;;9.76;100.00
21236;BME280;10775;42.678;26.324;2023-04-24T04:06:43;98542.28;;;9.79;100.00
21236;BME280;10775;42.678;26.324;2023-04-24T04:09:09;98540.59;;;9.77;100.00
21236;BME280;10775;42.678;26.324;2023-04-24T04:11:35;98544.94;;;9.76;100.00
21236;BME280;10775;42.678;26.324;2023-04-24T04:14:01;98539.75;;;9.75;100.00
21236;BME280;10775;42.678;26.324;2023-04-24T04:16:26;98548.66;;;9.65;100.00
21236;BME280;10775;42.678;26.324;2023-04-24T04:18:52;98547.69;;;9.69;100.00
21236;BME280;10775;42.678;26.324;2023-04-24T04:21:17;98551.06;;;9.74;100.00
21236;BME280;10775;42.678;26.324;2023-04-24T04:23:43;98563.03;;;9.87;100.00
21236;BME280;10775;42.678;26.324;2023-04-24T04:26:08;98555.19;;;9.87;100.00
21236;BME280;10775;42.678;26.324;2023-04-24T04:28:34;98553.44;;;9.88;100.00
21236;BME280;10775;42.678;26.324;2023-04-24T04:31:00;98561.06;;;9.98;100.00
21236;BME280;10775;42.678;26.324;2023-04-24T04:33:26;98552.03;;;10.15;100.00
21236;BME280;10775;42.678;26.324;2023-04-24T04:35:52;98549.41;;;10.15;100.00
21236;BME280;10775;42.678;26.324;2023-04-24T04:38:19;98559.13;;;10.08;100.00
21236;BME280;10775;42.678;26.324;2023-04-24T04:40:45;98558.16;;;10.14;100.00
21236;BME280;10775;42.678;26.324;2023-04-24T04:43:11;98547.47;;;10.24;100.00
21236;BME280;10775;42.678;26.324;2023-04-24T04:45:38;98556.88;;;10.35;100.00
21236;BME280;10775;42.678;26.324;2023-04-24T04:48:05;98550.66;;;10.40;100.00
21236;BME280;10775;42.678;26.324;2023-04-24T04:50:32;98551.38;;;10.47;100.00
21236;BME280;10775;42.678;26.324;2023-04-24T04:52:58;98557.44;;;10.51;100.00
21236;BME280;10775;42.678;26.324;2023-04-24T04:55:25;98561.78;;;10.50;100.00
21236;BME280;10775;42.678;26.324;2023-04-24T04:57:51;98560.00;;;10.52;100.00
21236;BME280;10775;42.678;26.324;2023-04-24T05:00:17;98559.91;;;10.57;100.00
21236;BME280;10775;42.678;26.324;2023-04-24T05:02:42;98552.75;;;10.65;100.00
21236;BME280;10775;42.678;26.324;2023-04-24T05:05:08;98551.69;;;10.74;100.00
21236;BME280;10775;42.678;26.324;2023-04-24T05:07:34;98546.34;;;10.78;100.00
21236;BME280;10775;42.678;26.324;2023-04-24T05:10:00;98548.91;;;10.81;100.00
21236;BME280;10775;42.678;26.324;2023-04-24T05:12:25;98547.16;;;10.82;100.00
21236;BME280;10775;42.678;26.324;2023-04-24T05:14:51;98549.59;;;10.90;100.00
21236;BME280;10775;42.678;26.324;2023-04-24T05:17:16;98545.88;;;10.98;100.00
21236;BME280;10775;42.678;26.324;2023-04-24T05:19:42;98539.50;;;11.10;99.52
21236;BME280;10775;42.678;26.324;2023-04-24T05:22:07;98535.84;;;11.17;98.55
21236;BME280;10775;42.678;26.324;2023-04-24T05:24:35;98534.09;;;11.16;97.32
21236;BME280;10775;42.678;26.324;2023-04-24T05:27:01;98537.38;;;11.26;97.58
21236;BME280;10775;42.678;26.324;2023-04-24T05:29:27;98524.00;;;11.37;98.73
21236;BME280;10775;42.678;26.324;2023-04-24T05:31:53;98534.91;;;11.54;97.57
21236;BME280;10775;42.678;26.324;2023-04-24T05:34:18;98528.53;;;11.64;98.46
21236;BME280;10775;42.678;26.324;2023-04-24T05:36:44;98538.69;;;11.77;98.19
21236;BME280;10775;42.678;26.324;2023-04-24T05:39:09;98537.56;;;11.87;98.95
21236;BME280;10775;42.678;26.324;2023-04-24T05:41:35;98535.66;;;11.92;99.46
21236;BME280;10775;42.678;26.324;2023-04-24T05:44:00;98542.38;;;12.02;97.37
21236;BME280;10775;42.678;26.324;2023-04-24T05:46:26;98542.25;;;12.07;99.76
21236;BME280;10775;42.678;26.324;2023-04-24T05:48:51;98536.13;;;12.06;99.48
21236;BME280;10775;42.678;26.324;2023-04-24T05:51:17;98535.28;;;12.06;98.93
21236;BME280;10775;42.678;26.324;2023-04-24T05:53:42;98537.53;;;12.20;100.00
21236;BME280;10775;42.678;26.324;2023-04-24T05:56:08;98541.66;;;12.27;99.94
21236;BME280;10775;42.678;26.324;2023-04-24T05:58:36;98545.16;;;12.27;100.00
21236;BME280;10775;42.678;26.324;2023-04-24T06:01:03;98545.38;;;12.20;97.55
21236;BME280;10775;42.678;26.324;2023-04-24T06:03:28;98535.16;;;12.10;98.71
21236;BME280;10775;42.678;26.324;2023-04-24T06:05:54;98550.69;;;12.16;100.00
21236;BME280;10775;42.678;26.324;2023-04-24T06:08:19;98547.38;;;12.41;100.00
21236;BME280;10775;42.678;26.324;2023-04-24T06:10:45;98548.00;;;12.49;100.00
21236;BME280;10775;42.678;26.324;2023-04-24T06:13:11;98539.91;;;12.57;94.81
21236;BME280;10775;42.678;26.324;2023-04-24T06:15:36;98550.75;;;12.74;100.00
21236;BME280;10775;42.678;26.324;2023-04-24T06:18:02;98541.88;;;12.78;96.57
21236;BME280;10775;42.678;26.324;2023-04-24T06:20:28;98545.56;;;13.79;98.68
21236;BME280;10775;42.678;26.324;2023-04-24T06:22:53;98535.72;;;15.02;84.12
21236;BME280;10775;42.678;26.324;2023-04-24T06:25:19;98540.94;;;15.66;79.72
21236;BME280;10775;42.678;26.324;2023-04-24T06:27:45;98532.91;;;16.31;77.52
21236;BME280;10775;42.678;26.324;2023-04-24T06:30:10;98530.47;;;16.26;72.64
21236;BME280;10775;42.678;26.324;2023-04-24T06:32:36;98529.59;;;17.02;76.06
21236;BME280;10775;42.678;26.324;2023-04-24T06:35:01;98535.84;;;15.84;72.12
21236;BME280;10775;42.678;26.324;2023-04-24T06:37:27;98533.72;;;14.87;71.41
21236;BME280;10775;42.678;26.324;2023-04-24T06:39:52;98533.19;;;15.63;79.72
21236;BME280;10775;42.678;26.324;2023-04-24T06:42:18;98541.13;;;15.84;70.42
21236;BME280;10775;42.678;26.324;2023-04-24T06:44:46;98544.75;;;16.98;72.60
21236;BME280;10775;42.678;26.324;2023-04-24T06:47:11;98539.31;;;16.63;70.47
21236;BME280;10775;42.678;26.324;2023-04-24T06:49:39;98542.63;;;16.87;75.69
21236;BME280;10775;42.678;26.324;2023-04-24T06:52:05;98545.53;;;17.54;72.58
21236;BME280;10775;42.678;26.324;2023-04-24T06:54:31;98541.13;;;19.03;67.79
21236;BME280;10775;42.678;26.324;2023-04-24T06:56:58;98540.75;;;18.62;60.89
21236;BME280;10775;42.678;26.324;2023-04-24T06:59:24;98544.59;;;18.56;65.25
21236;BME280;10775;42.678;26.324;2023-04-24T07:01:50;98536.97;;;18.50;64.67
21236;BME280;10775;42.678;26.324;2023-04-24T07:04:16;98537.28;;;19.39;58.47
21236;BME280;10775;42.678;26.324;2023-04-24T07:06:42;98540.03;;;19.98;56.65
21236;BME280;10775;42.678;26.324;2023-04-24T07:09:08;98531.97;;;20.42;56.74
21236;BME280;10775;42.678;26.324;2023-04-24T07:11:34;98533.19;;;20.80;55.13
21236;BME280;10775;42.678;26.324;2023-04-24T07:14:03;98528.72;;;20.80;49.09
21236;BME280;10775;42.678;26.324;2023-04-24T07:16:28;98538.22;;;19.84;54.78
21236;BME280;10775;42.678;26.324;2023-04-24T07:18:55;98542.59;;;20.42;55.04
21236;BME280;10775;42.678;26.324;2023-04-24T07:21:20;98548.84;;;19.68;52.62
21236;BME280;10775;42.678;26.324;2023-04-24T07:23:46;98539.56;;;20.34;56.10
21236;BME280;10775;42.678;26.324;2023-04-24T07:26:12;98543.09;;;21.05;54.92
21236;BME280;10775;42.678;26.324;2023-04-24T07:28:39;98544.75;;;21.20;49.90
21236;BME280;10775;42.678;26.324;2023-04-24T07:31:05;98538.28;;;21.52;52.20
21236;BME280;10775;42.678;26.324;2023-04-24T07:33:30;98536.81;;;20.36;51.50
21236;BME280;10775;42.678;26.324;2023-04-24T07:35:55;98531.41;;;20.23;50.10
21236;BME280;10775;42.678;26.324;2023-04-24T07:38:21;98539.38;;;19.94;51.06
21236;BME280;10775;42.678;26.324;2023-04-24T07:40:48;98530.06;;;19.57;53.31
21236;BME280;10775;42.678;26.324;2023-04-24T07:43:13;98533.50;;;20.47;52.19
21236;BME280;10775;42.678;26.324;2023-04-24T07:45:39;98540.03;;;21.11;54.42
21236;BME280;10775;42.678;26.324;2023-04-24T07:48:05;98533.09;;;20.81;51.78
21236;BME280;10775;42.678;26.324;2023-04-24T07:50:31;98530.09;;;20.16;49.88
21236;BME280;10775;42.678;26.324;2023-04-24T07:52:56;98529.28;;;20.85;53.40
21236;BME280;10775;42.678;26.324;2023-04-24T07:55:22;98530.50;;;20.94;50.70
21236;BME280;10775;42.678;26.324;2023-04-24T07:57:47;98524.81;;;20.86;56.11
21236;BME280;10775;42.678;26.324;2023-04-24T08:00:13;98521.97;;;20.89;50.79
21236;BME280;10775;42.678;26.324;2023-04-24T08:02:39;98519.81;;;21.36;55.27
21236;BME280;10775;42.678;26.324;2023-04-24T08:05:05;98518.34;;;21.84;51.59
21236;BME280;10775;42.678;26.324;2023-04-24T08:07:31;98514.94;;;22.21;51.00
21236;BME280;10775;42.678;26.324;2023-04-24T08:09:56;98516.88;;;21.13;53.56
21236;BME280;10775;42.678;26.324;2023-04-24T08:12:22;98524.41;;;20.51;48.46
21236;BME280;10775;42.678;26.324;2023-04-24T08:14:47;98521.09;;;20.18;52.34
21236;BME280;10775;42.678;26.324;2023-04-24T08:17:12;98508.09;;;20.57;52.42
21236;BME280;10775;42.678;26.324;2023-04-24T08:19:40;98519.94;;;21.07;54.16
21236;BME280;10775;42.678;26.324;2023-04-24T08:22:09;98511.75;;;21.10;56.92
21236;BME280;10775;42.678;26.324;2023-04-24T08:24:35;98509.75;;;21.41;55.40
21236;BME280;10775;42.678;26.324;2023-04-24T08:27:00;98507.63;;;21.19;48.65
21236;BME280;10775;42.678;26.324;2023-04-24T08:29:26;98498.91;;;20.48;52.55
21236;BME280;10775;42.678;26.324;2023-04-24T08:31:51;98508.09;;;20.00;54.01
21236;BME280;10775;42.678;26.324;2023-04-24T08:34:19;98509.63;;;20.88;49.45
21236;BME280;10775;42.678;26.324;2023-04-24T08:36:45;98505.81;;;20.65;48.89
21236;BME280;10775;42.678;26.324;2023-04-24T08:39:10;98514.09;;;21.42;49.11
21236;BME280;10775;42.678;26.324;2023-04-24T08:41:36;98513.84;;;21.98;48.40
21236;BME280;10775;42.678;26.324;2023-04-24T08:44:03;98503.22;;;22.10;46.40
21236;BME280;10775;42.678;26.324;2023-04-24T08:46:30;98509.28;;;21.87;47.39
21236;BME280;10775;42.678;26.324;2023-04-24T08:48:56;98508.66;;;21.96;49.68
21236;BME280;10775;42.678;26.324;2023-04-24T08:51:22;98501.63;;;21.95;48.30
21236;BME280;10775;42.678;26.324;2023-04-24T08:53:48;98504.75;;;21.49;49.37
21236;BME280;10775;42.678;26.324;2023-04-24T08:56:13;98504.41;;;21.93;47.97
21236;BME280;10775;42.678;26.324;2023-04-24T08:58:39;98510.19;;;21.20;48.98
21236;BME280;10775;42.678;26.324;2023-04-24T09:01:05;98504.41;;;21.93;50.06
21236;BME280;10775;42.678;26.324;2023-04-24T09:03:33;98501.63;;;21.95;46.61
21236;BME280;10775;42.678;26.324;2023-04-24T09:05:58;98511.19;;;21.32;47.75
21236;BME280;10775;42.678;26.324;2023-04-24T09:08:25;98508.69;;;21.43;50.67
21236;BME280;10775;42.678;26.324;2023-04-24T09:10:51;98498.94;;;21.57;48.71
21236;BME280;10775;42.678;26.324;2023-04-24T09:13:18;98496.38;;;21.42;49.72
21236;BME280;10775;42.678;26.324;2023-04-24T09:15:44;98487.78;;;20.41;48.00
21236;BME280;10775;42.678;26.324;2023-04-24T09:18:10;98491.31;;;19.99;52.78
21236;BME280;10775;42.678;26.324;2023-04-24T09:23:31;98491.72;;;21.32;51.44
21236;BME280;10775;42.678;26.324;2023-04-24T09:25:58;98491.72;;;21.71;49.76
21236;BME280;10775;42.678;26.324;2023-04-24T09:28:45;98498.56;;;22.01;50.29
21236;BME280;10775;42.678;26.324;2023-04-24T09:31:18;98492.78;;;21.82;49.17
21236;BME280;10775;42.678;26.324;2023-04-24T09:36:19;98495.00;;;21.62;50.72
21236;BME280;10775;42.678;26.324;2023-04-24T09:38:44;98482.66;;;20.67;51.69
21236;BME280;10775;42.678;26.324;2023-04-24T09:41:13;98483.25;;;20.58;52.18
21236;BME280;10775;42.678;26.324;2023-04-24T09:43:39;98474.34;;;20.59;53.70
21236;BME280;10775;42.678;26.324;2023-04-24T09:46:06;98477.91;;;20.72;50.96
21236;BME280;10775;42.678;26.324;2023-04-24T09:48:34;98477.31;;;20.81;51.99
21236;BME280;10775;42.678;26.324;2023-04-24T09:51:01;98486.53;;;21.03;50.95
21236;BME280;10775;42.678;26.324;2023-04-24T09:53:29;98479.91;;;21.63;50.49
21236;BME280;10775;42.678;26.324;2023-04-24T09:55:54;98482.69;;;21.74;51.12
21236;BME280;10775;42.678;26.324;2023-04-24T09:58:26;98481.69;;;21.62;49.74
21236;BME280;10775;42.678;26.324;2023-04-24T10:00:55;98471.56;;;21.02;49.88
21236;BME280;10775;42.678;26.324;2023-04-24T10:03:24;98463.31;;;20.65;50.28
21236;BME280;10775;42.678;26.324;2023-04-24T10:05:51;98467.13;;;20.47;52.89
21236;BME280;10775;42.678;26.324;2023-04-24T10:08:17;98476.56;;;20.79;49.76
21236;BME280;10775;42.678;26.324;2023-04-24T10:10:45;98465.38;;;20.74;52.92
21236;BME280;10775;42.678;26.324;2023-04-24T10:13:12;98464.38;;;20.34;52.02
21236;BME280;10775;42.678;26.324;2023-04-24T10:15:39;98460.91;;;20.19;55.05
21236;BME280;10775;42.678;26.324;2023-04-24T10:18:06;98466.97;;;19.92;53.82
21236;BME280;10775;42.678;26.324;2023-04-24T10:20:33;98456.66;;;19.88;55.63
21236;BME280;10775;42.678;26.324;2023-04-24T10:23:00;98458.34;;;20.03;54.47
21236;BME280;10775;42.678;26.324;2023-04-24T10:25:28;98454.41;;;20.66;51.69
21236;BME280;10775;42.678;26.324;2023-04-24T10:27:54;98446.69;;;21.16;52.09
21236;BME280;10775;42.678;26.324;2023-04-24T10:30:26;98450.75;;;20.26;52.18
21236;BME280;10775;42.678;26.324;2023-04-24T10:32:52;98450.06;;;20.36;52.88
21236;BME280;10775;42.678;26.324;2023-04-24T10:35:18;98439.88;;;20.99;52.09
21236;BME280;10775;42.678;26.324;2023-04-24T10:38:14;98442.63;;;21.37;50.50
21236;BME280;10775;42.678;26.324;2023-04-24T10:40:42;98442.81;;;21.34;52.10
21236;BME280;10775;42.678;26.324;2023-04-24T10:43:08;98442.13;;;21.45;51.01
21236;BME280;10775;42.678;26.324;2023-04-24T10:45:38;98435.53;;;20.83;50.18
21236;BME280;10775;42.678;26.324;2023-04-24T10:48:08;98432.59;;;20.47;53.45
21236;BME280;10775;42.678;26.324;2023-04-24T10:50:52;98434.66;;;20.70;54.05
21236;BME280;10775;42.678;26.324;2023-04-24T10:53:19;98434.81;;;21.21;51.07
21236;BME280;10775;42.678;26.324;2023-04-24T10:55:50;98435.84;;;21.19;49.41
21236;BME280;10775;42.678;26.324;2023-04-24T10:58:16;98425.41;;;20.34;52.88
21236;BME280;10775;42.678;26.324;2023-04-24T11:00:57;98429.88;;;20.48;54.22
21236;BME280;10775;42.678;26.324;2023-04-24T11:03:28;98425.13;;;20.39;52.32
21236;BME280;10775;42.678;26.324;2023-04-24T11:06:01;98424.34;;;20.10;53.66
21236;BME280;10775;42.678;26.324;2023-04-24T11:08:29;98410.75;;;19.57;54.50
21236;BME280;10775;42.678;26.324;2023-04-24T11:13:25;98414.09;;;19.75;54.37
21236;BME280;10775;42.678;26.324;2023-04-24T11:21:47;98404.41;;;21.13;53.75
21236;BME280;10775;42.678;26.324;2023-04-24T11:26:47;98393.34;;;20.52;54.49
21236;BME280;10775;42.678;26.324;2023-04-24T11:29:13;98399.38;;;21.08;53.85
21236;BME280;10775;42.678;26.324;2023-04-24T11:31:40;98391.22;;;21.37;52.19
21236;BME280;10775;42.678;26.324;2023-04-24T11:34:14;98386.38;;;21.56;51.03
21236;BME280;10775;42.678;26.324;2023-04-24T11:36:43;98379.97;;;21.33;51.15
21236;BME280;10775;42.678;26.324;2023-04-24T11:39:08;98382.91;;;21.03;51.43
21236;BME280;10775;42.678;26.324;2023-04-24T11:41:35;98366.97;;;21.28;52.60
21236;BME280;10775;42.678;26.324;2023-04-24T11:44:01;98370.75;;;21.39;51.33
21236;BME280;10775;42.678;26.324;2023-04-24T11:46:29;98377.81;;;21.13;51.98
21236;BME280;10775;42.678;26.324;2023-04-24T11:48:56;98370.09;;;20.82;52.52
21236;BME280;10775;42.678;26.324;2023-04-24T11:51:28;98380.66;;;20.42;55.36
21236;BME280;10775;42.678;26.324;2023-04-24T11:53:54;98370.03;;;20.42;55.09
21236;BME280;10775;42.678;26.324;2023-04-24T11:56:24;98362.25;;;20.39;55.12
21236;BME280;10775;42.678;26.324;2023-04-24T11:58:52;98356.97;;;20.39;54.45
21236;BME280;10775;42.678;26.324;2023-04-24T12:01:19;98360.78;;;20.35;56.20
21236;BME280;10775;42.678;26.324;2023-04-24T12:03:59;98360.50;;;20.53;57.08
21236;BME280;10775;42.678;26.324;2023-04-24T12:06:25;98354.94;;;20.57;55.36
21236;BME280;10775;42.678;26.324;2023-04-24T12:08:52;98350.13;;;20.77;54.74
21236;BME280;10775;42.678;26.324;2023-04-24T12:11:20;98349.84;;;20.94;54.88
21236;BME280;10775;42.678;26.324;2023-04-24T12:13:45;98336.44;;;21.09;55.99
21236;BME280;10775;42.678;26.324;2023-04-24T12:16:11;98333.78;;;21.09;54.49
21236;BME280;10775;42.678;26.324;2023-04-24T12:18:44;98338.25;;;20.95;54.48
21236;BME280;10775;42.678;26.324;2023-04-24T12:21:20;98329.81;;;20.89;54.88
21236;BME280;10775;42.678;26.324;2023-04-24T12:23:46;98332.47;;;20.76;53.41
21236;BME280;10775;42.678;26.324;2023-04-24T12:26:16;98321.69;;;20.92;53.64
21236;BME280;10775;42.678;26.324;2023-04-24T12:28:42;98326.22;;;20.90;57.14
21236;BME280;10775;42.678;26.324;2023-04-24T12:31:08;98327.22;;;20.61;54.35
21236;BME280;10775;42.678;26.324;2023-04-24T12:33:35;98327.56;;;20.70;58.28
21236;BME280;10775;42.678;26.324;2023-04-24T12:36:01;98317.06;;;20.81;57.89
21236;BME280;10775;42.678;26.324;2023-04-24T12:38:28;98319.19;;;20.76;53.96
21236;BME280;10775;42.678;26.324;2023-04-24T12:41:09;98309.00;;;20.82;55.40
21236;BME280;10775;42.678;26.324;2023-04-24T12:43:35;98306.69;;;21.03;56.03
21236;BME280;10775;42.678;26.324;2023-04-24T12:46:00;98306.06;;;21.25;55.86
21236;BME280;10775;42.678;26.324;2023-04-24T12:48:27;98298.59;;;20.79;53.88
21236;BME280;10775;42.678;26.324;2023-04-24T12:50:53;98303.91;;;20.52;56.22
21236;BME280;10775;42.678;26.324;2023-04-24T12:53:19;98298.34;;;20.42;57.73
21236;BME280;10775;42.678;26.324;2023-04-24T12:55:44;98297.19;;;20.47;59.04
21236;BME280;10775;42.678;26.324;2023-04-24T12:58:12;98292.09;;;20.44;56.82
21236;BME280;10775;42.678;26.324;2023-04-24T13:00:38;98287.97;;;20.52;57.72